Aviation Digital Data Service (ADDS)

Output produced by TAFs form (2055 UTC 29 August 2015)
found at http://www.aviationweather.gov/adds/tafs/
 
KBJC 292045Z 17003KT 10SM FU FEW100 32/01 A3019
KBJC 291740Z 2918/3018 VRB03KT P6SM FEW140 
     FM292000 14006KT P6SM FEW090 
     FM292200 17007KT P6SM FEW080 SCT200 
     FM300200 20008KT P6SM FEW080 SCT140 
     FM301500 25009KT P6SM SCT080 BKN140